Dayton, Ohio
Current Conditions -  °F | °C
As of 3:58 PM on Wednesday 17 Dec 2014 (Local Time) from KFFO Reporting Station
Overcast Overcast  
Wind Chill: -7°   Ceiling: 1500
Heat Index: -2°   Visibility: 10mi
Dew Point: -5°   Wind: 12mph
Humidity: 79%   Direction: 280°W
Pressure: 30.18"   Gusts: NA
Location:  39.76°N, 84.19°W
Report Text: KFFO 172058Z 28010KT 10SM OVC015 M02/M05 A3018 RMK AO2A SLP232 T10181050 55003
Loading
Personal Weather Stations






























Interactive Weather Map New forecast layout! Learn more

10-Day Weather Forecast

Advertisements
Track Severe Weather on mobile